createdAt,value
2016-10-29T00:00:04.293Z,9.66
2016-10-29T00:01:04.608Z,9.68
2016-10-29T00:02:04.506Z,9.54
2016-10-29T00:03:04.637Z,9.5
2016-10-29T00:04:04.268Z,9.48
2016-10-29T00:05:04.675Z,9.39
2016-10-29T00:06:03.509Z,9.43
2016-10-29T00:07:04.154Z,9.31
2016-10-29T00:08:03.722Z,9.31
2016-10-29T00:09:03.863Z,9.29
2016-10-29T00:10:03.862Z,9.26
2016-10-29T00:11:04.335Z,9.26
2016-10-29T00:12:03.914Z,9.22
2016-10-29T00:13:04.237Z,9.18
2016-10-29T00:14:04.434Z,9.14
2016-10-29T00:15:04.521Z,9.04
2016-10-29T00:16:04.340Z,9.08
2016-10-29T00:17:04.862Z,8.95
2016-10-29T00:18:04.585Z,8.94
2016-10-29T00:19:04.148Z,8.85
2016-10-29T00:20:04.540Z,8.87
2016-10-29T00:21:03.951Z,8.82
2016-10-29T00:22:04.262Z,8.76
2016-10-29T00:23:05.151Z,8.74
2016-10-29T00:24:05.027Z,8.66
2016-10-29T00:25:04.515Z,8.7
2016-10-29T00:26:03.587Z,8.7
2016-10-29T00:27:03.889Z,8.66
2016-10-29T00:28:04.658Z,8.63
2016-10-29T00:29:04.348Z,8.61
2016-10-29T00:30:04.395Z,8.55
2016-10-29T00:31:05.003Z,8.34
2016-10-29T00:32:04.587Z,8.33
2016-10-29T00:33:04.937Z,8.38
2016-10-29T00:34:05.232Z,8.23
2016-10-29T00:35:05.059Z,8.28
2016-10-29T00:36:04.543Z,8.2
2016-10-29T00:37:04.939Z,8.18
2016-10-29T00:38:04.251Z,8.2
2016-10-29T00:39:04.126Z,8.15
2016-10-29T00:40:04.900Z,8.1
2016-10-29T00:41:05.082Z,8.16
2016-10-29T00:42:04.139Z,8.05
2016-10-29T00:43:04.333Z,8.08
2016-10-29T00:44:05.007Z,8.19
2016-10-29T00:45:04.419Z,8.2
2016-10-29T00:46:05.084Z,8.2
2016-10-29T00:47:05.141Z,8.06
2016-10-29T00:48:05.275Z,8.05
2016-10-29T00:49:05.178Z,7.88
2016-10-29T00:50:04.729Z,7.85
2016-10-29T00:51:04.970Z,7.7
2016-10-29T00:52:04.849Z,7.73
2016-10-29T00:53:05.140Z,7.66
2016-10-29T00:54:04.671Z,7.57
2016-10-29T00:55:04.682Z,7.48
2016-10-29T00:56:04.702Z,7.45
2016-10-29T00:57:04.636Z,7.31
2016-10-29T00:58:05.379Z,7.35
2016-10-29T00:59:05.382Z,7.31
2016-10-29T01:00:05.051Z,7.24
2016-10-29T01:01:04.681Z,7.13
2016-10-29T01:02:04.670Z,7.03
2016-10-29T01:03:05.381Z,7.05
2016-10-29T01:04:04.624Z,6.96
2016-10-29T01:05:04.593Z,7
2016-10-29T01:06:05.148Z,7.06
2016-10-29T01:07:04.835Z,6.93
2016-10-29T01:08:04.581Z,7.06
2016-10-29T01:09:04.975Z,7.02
2016-10-29T01:10:05.120Z,6.92
2016-10-29T01:11:05.093Z,6.84
2016-10-29T01:12:04.987Z,6.87
2016-10-29T01:13:05.299Z,6.92
2016-10-29T01:14:04.793Z,6.85
2016-10-29T01:15:05.146Z,7.03
2016-10-29T01:16:06.081Z,6.96
2016-10-29T01:17:04.974Z,6.89
2016-10-29T01:18:05.727Z,6.87
2016-10-29T01:19:08.127Z,6.75
2016-10-29T01:20:05.722Z,6.77
2016-10-29T01:21:06.129Z,6.6
2016-10-29T01:22:05.254Z,6.56
2016-10-29T01:23:06.180Z,6.42
2016-10-29T01:24:05.272Z,6.46
2016-10-29T01:25:05.059Z,6.3
2016-10-29T01:26:05.461Z,6.22
2016-10-29T01:27:05.155Z,6.3
2016-10-29T01:28:06.446Z,6.2
2016-10-29T01:29:05.073Z,6.16
2016-10-29T01:30:05.895Z,6.19
2016-10-29T01:31:06.342Z,6.11
2016-10-29T01:32:05.362Z,6.17
2016-10-29T01:33:06.143Z,6.26
2016-10-29T01:34:06.465Z,6.28
2016-10-29T01:35:05.388Z,6.24
2016-10-29T01:36:05.357Z,6.17
2016-10-29T01:37:06.114Z,6.14
2016-10-29T01:38:05.280Z,6.27
2016-10-29T01:39:06.034Z,6.16
2016-10-29T01:40:06.084Z,6.22
2016-10-29T01:41:05.805Z,6.2
2016-10-29T01:42:05.581Z,6.12
2016-10-29T01:43:05.828Z,6.22
2016-10-29T01:44:05.460Z,6.24
2016-10-29T01:45:06.042Z,6.07
2016-10-29T01:46:05.479Z,6.04
2016-10-29T01:47:05.512Z,5.94
2016-10-29T01:48:05.730Z,5.97
2016-10-29T01:49:05.645Z,5.76
2016-10-29T01:50:05.630Z,5.82
2016-10-29T01:51:05.418Z,5.93
2016-10-29T01:52:06.117Z,6.09
2016-10-29T01:53:06.300Z,5.99
2016-10-29T01:54:06.346Z,6.16
2016-10-29T01:55:05.383Z,6.19
2016-10-29T01:56:05.883Z,6.28
2016-10-29T01:57:06.035Z,6.31
2016-10-29T01:58:07.125Z,6.26
2016-10-29T01:59:06.437Z,6.31
2016-10-29T02:00:05.957Z,6.3
2016-10-29T02:01:06.051Z,6.26
2016-10-29T02:02:18.311Z,6.24
2016-10-29T02:03:05.323Z,6.27
2016-10-29T02:04:06.011Z,6.38
2016-10-29T02:05:05.993Z,6.27
2016-10-29T02:06:05.852Z,6.38
2016-10-29T02:07:06.442Z,6.36
2016-10-29T02:08:06.355Z,6.28
2016-10-29T02:09:05.756Z,6.31
2016-10-29T02:10:05.970Z,6.31
2016-10-29T02:11:05.782Z,6.24
2016-10-29T02:12:05.857Z,6.19
2016-10-29T02:13:06.392Z,6.01
2016-10-29T02:14:05.933Z,5.99
2016-10-29T02:15:06.431Z,5.94
2016-10-29T02:16:06.052Z,5.82
2016-10-29T02:17:05.836Z,5.83
2016-10-29T02:18:06.313Z,5.9
2016-10-29T02:19:06.704Z,5.9
2016-10-29T02:20:06.387Z,5.86
2016-10-29T02:21:06.278Z,5.98
2016-10-29T02:22:06.299Z,5.98
2016-10-29T02:23:05.953Z,6.08
2016-10-29T02:24:06.348Z,5.91
2016-10-29T02:25:06.134Z,5.89
2016-10-29T02:26:06.551Z,5.83
2016-10-29T02:27:07.551Z,5.71
2016-10-29T02:28:06.618Z,5.82
2016-10-29T02:29:07.341Z,5.82
2016-10-29T02:30:07.011Z,5.83
2016-10-29T02:31:07.361Z,5.83
2016-10-29T02:32:06.288Z,5.73
2016-10-29T02:33:07.239Z,5.82
2016-10-29T02:34:06.973Z,5.82
2016-10-29T02:35:06.802Z,5.83
2016-10-29T02:36:06.894Z,5.87
2016-10-29T02:37:07.020Z,5.73
2016-10-29T02:38:07.370Z,5.76
2016-10-29T02:39:06.975Z,5.82
2016-10-29T02:40:06.950Z,5.84
2016-10-29T02:41:07.395Z,5.93
2016-10-29T02:42:06.448Z,6.04
2016-10-29T02:43:06.202Z,5.99
2016-10-29T02:44:06.763Z,5.99
2016-10-29T02:45:06.896Z,6.02
2016-10-29T02:46:06.631Z,6.08
2016-10-29T02:47:06.904Z,5.98
2016-10-29T02:48:07.935Z,5.97
2016-10-29T02:49:06.755Z,6.05
2016-10-29T02:50:06.162Z,6.08
2016-10-29T02:51:06.911Z,6.12
2016-10-29T02:52:06.851Z,6.05
2016-10-29T02:53:06.816Z,5.98
2016-10-29T02:54:07.219Z,5.86
2016-10-29T02:55:07.245Z,5.72
2016-10-29T02:56:06.417Z,5.82
2016-10-29T02:57:06.779Z,5.68
2016-10-29T02:58:07.065Z,5.59
2016-10-29T02:59:07.205Z,5.68
2016-10-29T03:00:06.805Z,5.61
2016-10-29T03:01:06.835Z,5.65
2016-10-29T03:02:07.029Z,5.68
2016-10-29T03:03:07.598Z,5.76
2016-10-29T03:04:06.942Z,5.73
2016-10-29T03:05:06.536Z,5.75
2016-10-29T03:06:07.375Z,5.84
2016-10-29T03:07:07.419Z,5.83
2016-10-29T03:08:07.527Z,5.87
2016-10-29T03:09:07.681Z,5.98
2016-10-29T03:10:07.876Z,5.99
2016-10-29T03:11:07.114Z,6.04
2016-10-29T03:12:06.650Z,6.11
2016-10-29T03:13:07.637Z,6.16
2016-10-29T03:14:07.200Z,6.22
2016-10-29T03:15:07.429Z,6.19
2016-10-29T03:16:07.436Z,6.12
2016-10-29T03:17:07.387Z,6.12
2016-10-29T03:18:08.636Z,6.12
2016-10-29T03:19:07.855Z,6.11
2016-10-29T03:20:07.543Z,6.19
2016-10-29T03:21:06.985Z,6.08
2016-10-29T03:22:07.399Z,6.16
2016-10-29T03:23:07.151Z,6.11
2016-10-29T03:24:07.182Z,6.11
2016-10-29T03:25:07.094Z,6.07
2016-10-29T03:26:07.987Z,6.07
2016-10-29T03:27:07.489Z,5.99
2016-10-29T03:28:08.271Z,5.89
2016-10-29T03:29:07.008Z,5.94
2016-10-29T03:30:07.818Z,6.01
2016-10-29T03:31:08.058Z,6.08
2016-10-29T03:32:07.309Z,6.02
2016-10-29T03:33:07.421Z,6.08
2016-10-29T03:34:07.910Z,6.11
2016-10-29T03:35:07.288Z,6.11
2016-10-29T03:36:07.462Z,6.07
2016-10-29T03:37:07.555Z,6.07
2016-10-29T03:38:08.029Z,5.99
2016-10-29T03:39:07.592Z,5.87
2016-10-29T03:40:08.224Z,5.8
2016-10-29T03:41:07.351Z,5.86
2016-10-29T03:42:08.186Z,5.76
2016-10-29T03:43:07.592Z,5.76
2016-10-29T03:44:08.044Z,5.71
2016-10-29T03:45:07.453Z,5.73
2016-10-29T03:46:07.418Z,5.69
2016-10-29T03:47:07.289Z,5.73
2016-10-29T03:48:08.250Z,5.76
2016-10-29T03:49:08.097Z,5.73
2016-10-29T03:50:08.272Z,5.79
2016-10-29T03:51:07.413Z,5.75
2016-10-29T03:52:08.262Z,5.72
2016-10-29T03:53:07.282Z,5.71
2016-10-29T03:54:07.869Z,5.79
2016-10-29T03:55:07.339Z,5.79
2016-10-29T03:56:08.004Z,5.84
2016-10-29T03:57:08.464Z,6.01
2016-10-29T03:58:07.410Z,6.11
2016-10-29T03:59:07.771Z,6.09
2016-10-29T04:00:08.016Z,6.14
2016-10-29T04:01:07.328Z,6.16
2016-10-29T04:02:08.046Z,6.36
2016-10-29T04:03:08.146Z,6.33
2016-10-29T04:04:07.812Z,6.35
2016-10-29T04:05:07.767Z,6.42
2016-10-29T04:06:08.230Z,6.38
2016-10-29T04:07:07.733Z,6.35
2016-10-29T04:08:08.907Z,6.36
2016-10-29T04:09:08.030Z,6.26
2016-10-29T04:10:08.083Z,6.22
2016-10-29T04:11:08.382Z,6.19
2016-10-29T04:12:08.254Z,6.24
2016-10-29T04:13:08.074Z,6.22
2016-10-29T04:14:08.339Z,6.17
2016-10-29T04:15:08.572Z,6.04
2016-10-29T04:16:08.027Z,6.09
2016-10-29T04:17:08.313Z,6.09
2016-10-29T04:18:08.044Z,6.17
2016-10-29T04:19:07.678Z,6.04
2016-10-29T04:20:08.551Z,6.05
2016-10-29T04:21:08.570Z,5.89
2016-10-29T04:22:07.551Z,5.89
2016-10-29T04:23:08.958Z,6.01
2016-10-29T04:24:08.110Z,5.99
2016-10-29T04:25:08.783Z,6.02
2016-10-29T04:26:07.902Z,6.11
2016-10-29T04:27:07.932Z,5.93
2016-10-29T04:28:08.852Z,5.94
2016-10-29T04:29:07.789Z,6.08
2016-10-29T04:30:08.128Z,6.07
2016-10-29T04:31:08.166Z,6.09
2016-10-29T04:32:07.967Z,6.07
2016-10-29T04:33:08.662Z,6.11
2016-10-29T04:34:08.898Z,6.08
2016-10-29T04:35:09.628Z,5.99
2016-10-29T04:36:08.918Z,5.86
2016-10-29T04:37:07.980Z,5.73
2016-10-29T04:38:08.687Z,5.66
2016-10-29T04:39:08.296Z,5.62
2016-10-29T04:40:08.324Z,5.56
2016-10-29T04:41:08.131Z,5.51
2016-10-29T04:42:07.985Z,5.56
2016-10-29T04:43:08.570Z,5.64
2016-10-29T04:44:09.580Z,5.66
2016-10-29T04:45:08.331Z,5.82
2016-10-29T04:46:08.832Z,5.75
2016-10-29T04:47:09.032Z,5.76
2016-10-29T04:48:08.531Z,5.8
2016-10-29T04:49:08.379Z,5.72
2016-10-29T04:50:10.159Z,5.73
2016-10-29T04:51:07.967Z,5.56
2016-10-29T04:52:08.068Z,5.46
2016-10-29T04:53:07.860Z,5.38
2016-10-29T04:54:08.783Z,5.28
2016-10-29T04:55:08.583Z,5.28
2016-10-29T04:56:09.722Z,5.15
2016-10-29T04:57:08.691Z,5.18
2016-10-29T04:58:09.617Z,5.11
2016-10-29T04:59:08.657Z,5.18
2016-10-29T05:00:09.056Z,5.2
2016-10-29T05:01:09.952Z,5.18
2016-10-29T05:02:08.772Z,5.1
2016-10-29T05:03:09.117Z,5
2016-10-29T05:04:10.550Z,5
2016-10-29T05:05:08.978Z,4.86
2016-10-29T05:06:08.534Z,4.86
2016-10-29T05:07:09.116Z,5
2016-10-29T05:08:09.716Z,4.97
2016-10-29T05:09:10.531Z,4.94
2016-10-29T05:10:09.570Z,4.92
2016-10-29T05:11:09.552Z,4.87
2016-10-29T05:12:09.538Z,4.89
2016-10-29T05:13:10.040Z,4.67
2016-10-29T05:14:09.458Z,4.68
2016-10-29T05:15:09.084Z,4.56
2016-10-29T05:16:09.519Z,4.55
2016-10-29T05:17:08.917Z,4.48
2016-10-29T05:18:08.799Z,4.42
2016-10-29T05:19:09.950Z,4.42
2016-10-29T05:20:08.983Z,4.5
2016-10-29T05:21:09.481Z,4.48
2016-10-29T05:22:09.100Z,4.31
2016-10-29T05:23:08.888Z,4.26
2016-10-29T05:24:09.846Z,4.31
2016-10-29T05:25:09.022Z,4.16
2016-10-29T05:26:10.098Z,4.24
2016-10-29T05:27:10.038Z,4.24
2016-10-29T05:28:09.819Z,4.22
2016-10-29T05:29:09.888Z,4.3
2016-10-29T05:30:09.522Z,4.41
2016-10-29T05:31:09.853Z,4.37
2016-10-29T05:32:10.171Z,4.37
2016-10-29T05:33:09.902Z,4.53
2016-10-29T05:34:10.066Z,4.42
2016-10-29T05:35:09.530Z,4.49
2016-10-29T05:36:10.702Z,4.4
2016-10-29T05:37:09.898Z,4.45
2016-10-29T05:38:08.911Z,4.74
2016-10-29T05:39:10.251Z,4.84
2016-10-29T05:40:09.149Z,4.94
2016-10-29T05:41:09.301Z,5.04
2016-10-29T05:42:09.360Z,5.53
2016-10-29T05:43:09.151Z,5.61
2016-10-29T05:44:09.167Z,5.64
2016-10-29T05:45:09.490Z,5.86
2016-10-29T05:46:09.566Z,5.84
2016-10-29T05:47:09.867Z,5.86
2016-10-29T05:48:10.190Z,6.04
2016-10-29T05:49:09.812Z,6.17
2016-10-29T05:50:09.908Z,6.38
2016-10-29T05:51:09.970Z,6.54
2016-10-29T05:52:10.121Z,6.67
2016-10-29T05:53:10.711Z,6.81
2016-10-29T05:54:10.564Z,6.75
2016-10-29T05:55:09.518Z,6.85
2016-10-29T05:56:08.977Z,7.03
2016-10-29T05:57:10.230Z,7.14
2016-10-29T05:58:09.736Z,7.15
2016-10-29T05:59:09.951Z,7.35
2016-10-29T06:00:10.101Z,7.45
2016-10-29T06:01:09.729Z,7.6
2016-10-29T06:02:09.825Z,7.75
2016-10-29T06:03:09.516Z,7.88
2016-10-29T06:04:10.180Z,7.85
2016-10-29T06:05:09.627Z,7.97
2016-10-29T06:06:09.595Z,7.98
2016-10-29T06:07:09.060Z,7.95
2016-10-29T06:08:10.188Z,7.97
2016-10-29T06:09:10.316Z,8.01
2016-10-29T06:10:10.239Z,7.93
2016-10-29T06:11:09.618Z,7.95
2016-10-29T06:12:09.568Z,7.91
2016-10-29T06:13:10.044Z,8.09
2016-10-29T06:14:09.996Z,7.98
2016-10-29T06:15:09.976Z,7.95
2016-10-29T06:16:09.883Z,7.94
2016-10-29T06:17:09.881Z,7.87
2016-10-29T06:18:10.963Z,7.9
2016-10-29T06:19:10.014Z,7.94
2016-10-29T06:20:09.950Z,7.79
2016-10-29T06:21:10.847Z,7.76
2016-10-29T06:22:10.091Z,7.85
2016-10-29T06:23:10.293Z,7.8
2016-10-29T06:24:11.312Z,7.8
2016-10-29T06:25:10.601Z,7.75
2016-10-29T06:26:09.776Z,7.76
2016-10-29T06:27:09.873Z,7.76
2016-10-29T06:28:10.964Z,7.79
2016-10-29T06:29:10.342Z,7.82
2016-10-29T06:30:09.849Z,7.76
2016-10-29T06:31:10.761Z,7.75
2016-10-29T06:32:10.344Z,7.73
2016-10-29T06:33:10.322Z,7.75
2016-10-29T06:34:10.185Z,7.73
2016-10-29T06:35:10.161Z,7.7
2016-10-29T06:36:10.158Z,7.7
2016-10-29T06:37:09.853Z,7.82
2016-10-29T06:38:10.135Z,7.83
2016-10-29T06:39:10.105Z,7.76
2016-10-29T06:40:10.611Z,7.72
2016-10-29T06:41:10.380Z,7.76
2016-10-29T06:42:10.243Z,7.82
2016-10-29T06:43:10.801Z,7.75
2016-10-29T06:44:10.089Z,7.85
2016-10-29T06:45:10.089Z,7.85
2016-10-29T06:46:10.752Z,7.9
2016-10-29T06:47:10.643Z,7.87
2016-10-29T06:48:10.454Z,7.93
2016-10-29T06:49:09.702Z,7.88
2016-10-29T06:50:10.005Z,8.08
2016-10-29T06:51:10.222Z,8.18
2016-10-29T06:52:10.562Z,8.19
2016-10-29T06:53:10.578Z,8.19
2016-10-29T06:54:11.156Z,8.27
2016-10-29T06:55:11.182Z,8.33
2016-10-29T06:56:10.583Z,8.33
2016-10-29T06:57:10.603Z,8.28
2016-10-29T06:58:10.588Z,8.34
2016-10-29T06:59:10.669Z,8.44
2016-10-29T07:00:10.574Z,8.51
2016-10-29T07:01:10.557Z,8.51
2016-10-29T07:02:11.990Z,8.55
2016-10-29T07:03:10.419Z,8.61
2016-10-29T07:04:11.592Z,8.66
2016-10-29T07:05:11.981Z,8.53
2016-10-29T07:06:10.597Z,8.7
2016-10-29T07:07:10.593Z,8.7
2016-10-29T07:08:10.921Z,8.82
2016-10-29T07:09:10.852Z,8.88
2016-10-29T07:10:10.928Z,8.82
2016-10-29T07:11:11.340Z,8.84
2016-10-29T07:12:10.873Z,8.79
2016-10-29T07:13:10.702Z,8.88
2016-10-29T07:14:11.167Z,8.92
2016-10-29T07:15:10.459Z,8.95
2016-10-29T07:16:10.717Z,8.97
2016-10-29T07:17:11.250Z,8.88
2016-10-29T07:18:12.071Z,9.02
2016-10-29T07:19:10.630Z,9.06
2016-10-29T07:20:11.119Z,9.04
2016-10-29T07:21:10.781Z,9.1
2016-10-29T07:22:10.954Z,9.16
2016-10-29T07:23:10.615Z,9.22
2016-10-29T07:24:10.856Z,9.16
2016-10-29T07:25:10.552Z,9.25
2016-10-29T07:26:10.568Z,9.28
2016-10-29T07:27:10.379Z,9.29
2016-10-29T07:28:10.758Z,9.32
2016-10-29T07:29:11.145Z,9.32
2016-10-29T07:30:10.566Z,9.37
2016-10-29T07:31:11.250Z,9.36
2016-10-29T07:32:11.138Z,9.32
2016-10-29T07:33:10.579Z,9.34
2016-10-29T07:34:10.990Z,9.37
2016-10-29T07:35:11.733Z,9.37
2016-10-29T07:36:10.813Z,9.47
2016-10-29T07:37:11.251Z,9.43
2016-10-29T07:38:11.165Z,9.47
2016-10-29T07:39:11.821Z,9.48
2016-10-29T07:40:11.386Z,9.46
2016-10-29T07:41:12.190Z,9.4
2016-10-29T07:42:12.058Z,9.44
2016-10-29T07:43:11.817Z,9.44
2016-10-29T07:44:11.570Z,9.55
2016-10-29T07:45:11.398Z,9.56
2016-10-29T07:46:11.127Z,9.55
2016-10-29T07:47:11.470Z,9.62
2016-10-29T07:48:11.615Z,9.65
2016-10-29T07:49:10.997Z,9.61
2016-10-29T07:50:11.622Z,9.68
2016-10-29T07:51:12.431Z,9.76
2016-10-29T07:52:12.007Z,9.68
2016-10-29T07:53:11.960Z,9.59
2016-10-29T07:54:11.045Z,9.68
2016-10-29T07:55:11.444Z,9.69
2016-10-29T07:56:11.862Z,9.69
2016-10-29T07:57:11.634Z,9.8
2016-10-29T07:58:11.119Z,9.84
2016-10-29T07:59:12.229Z,9.84
2016-10-29T08:00:11.881Z,9.97
2016-10-29T08:01:11.898Z,9.92
2016-10-29T08:02:11.871Z,9.94
2016-10-29T08:03:11.614Z,9.86
2016-10-29T08:04:11.750Z,9.83
2016-10-29T08:05:12.346Z,9.8
2016-10-29T08:06:12.542Z,9.76
2016-10-29T08:07:11.716Z,9.89
2016-10-29T08:08:11.971Z,9.95
2016-10-29T08:09:12.447Z,9.98
2016-10-29T08:10:11.330Z,10.02
2016-10-29T08:11:11.601Z,10.26
2016-10-29T08:12:11.502Z,10.31
2016-10-29T08:13:11.527Z,10.4
2016-10-29T08:14:12.392Z,10.34
2016-10-29T08:15:11.446Z,10.51
2016-10-29T08:16:12.018Z,10.48
2016-10-29T08:17:12.089Z,10.42
2016-10-29T08:18:12.191Z,10.44
2016-10-29T08:19:12.437Z,10.44
2016-10-29T08:20:11.959Z,10.51
2016-10-29T08:21:12.405Z,10.44
2016-10-29T08:22:11.718Z,10.44
2016-10-29T08:23:11.899Z,10.38
2016-10-29T08:24:12.131Z,10.35
2016-10-29T08:25:13.034Z,10.35
2016-10-29T08:26:12.148Z,10.38
2016-10-29T08:27:12.538Z,10.34
2016-10-29T08:28:13.167Z,10.49
2016-10-29T08:29:12.371Z,10.48
2016-10-29T08:30:12.288Z,10.53
2016-10-29T08:31:12.134Z,10.54
2016-10-29T08:32:13.013Z,10.69
2016-10-29T08:33:12.313Z,10.78
2016-10-29T08:34:12.264Z,10.79
2016-10-29T08:35:13.017Z,10.76
2016-10-29T08:36:12.214Z,10.79
2016-10-29T08:37:12.213Z,10.9
2016-10-29T08:38:12.099Z,10.9
2016-10-29T08:39:12.156Z,10.96
2016-10-29T08:40:11.975Z,10.99
2016-10-29T08:41:12.867Z,10.89
2016-10-29T08:42:12.713Z,10.86
2016-10-29T08:43:12.602Z,10.82
2016-10-29T08:44:12.507Z,11.05
2016-10-29T08:45:13.084Z,11.02
2016-10-29T08:46:12.147Z,11.02
2016-10-29T08:47:12.994Z,10.97
2016-10-29T08:48:12.413Z,11.18
2016-10-29T08:49:12.365Z,11.07
2016-10-29T08:50:12.487Z,11.17
2016-10-29T08:51:12.456Z,11.12
2016-10-29T08:52:12.821Z,11.17
2016-10-29T08:53:12.593Z,11.18
2016-10-29T08:54:12.989Z,11.33
2016-10-29T08:55:13.585Z,11.32
2016-10-29T08:56:12.653Z,11.45
2016-10-29T08:57:12.745Z,11.5
2016-10-29T08:58:12.815Z,11.4
2016-10-29T08:59:12.400Z,11.59
2016-10-29T09:00:12.864Z,11.51
2016-10-29T09:01:12.709Z,11.77
2016-10-29T09:02:13.531Z,11.73
2016-10-29T09:03:12.477Z,11.78
2016-10-29T09:04:12.908Z,11.81
2016-10-29T09:05:13.017Z,11.8
2016-10-29T09:06:12.770Z,11.9
2016-10-29T09:07:13.246Z,11.95
2016-10-29T09:08:12.894Z,12
2016-10-29T09:09:13.257Z,12.4
2016-10-29T09:10:12.456Z,12.4
2016-10-29T09:11:13.231Z,12.49
2016-10-29T09:12:12.793Z,12.65
2016-10-29T09:13:12.921Z,12.73
2016-10-29T09:14:12.890Z,13.05
2016-10-29T09:15:13.054Z,13.52
2016-10-29T09:16:12.883Z,13.47
2016-10-29T09:17:13.152Z,13.37
2016-10-29T09:18:13.780Z,13.31
2016-10-29T09:19:13.266Z,13.27
2016-10-29T09:20:14.106Z,13.35
2016-10-29T09:21:14.231Z,13.37
2016-10-29T09:22:13.650Z,13.46
2016-10-29T09:23:14.053Z,13.54
2016-10-29T09:24:13.098Z,13.53
2016-10-29T09:25:12.687Z,13.89
2016-10-29T09:26:15.789Z,14.26
2016-10-29T09:27:12.697Z,14.65
2016-10-29T09:28:13.336Z,14.88
2016-10-29T09:29:13.957Z,14.69
2016-10-29T09:30:14.205Z,14.69
2016-10-29T09:31:13.504Z,14.48
2016-10-29T09:32:14.103Z,14.23
2016-10-29T09:33:13.438Z,14.2
2016-10-29T09:34:13.654Z,14.14
2016-10-29T09:35:14.416Z,14.25
2016-10-29T09:36:13.203Z,14.54
2016-10-29T09:37:13.578Z,14.51
2016-10-29T09:38:13.572Z,14.45
2016-10-29T09:39:13.192Z,14.5
2016-10-29T09:40:12.856Z,14.58
2016-10-29T09:41:13.569Z,14.73
2016-10-29T09:42:13.501Z,14.55
2016-10-29T09:43:13.360Z,14.63
2016-10-29T09:44:13.742Z,14.7
2016-10-29T09:45:13.490Z,14.79
2016-10-29T09:46:13.490Z,14.96
2016-10-29T09:47:13.641Z,14.85
2016-10-29T09:48:13.155Z,14.84
2016-10-29T09:49:13.531Z,14.92
2016-10-29T09:50:13.767Z,14.85
2016-10-29T09:51:13.402Z,14.82
2016-10-29T09:52:14.224Z,14.69
2016-10-29T09:53:13.778Z,14.53
2016-10-29T09:54:13.660Z,14.2
2016-10-29T09:55:14.325Z,14.51
2016-10-29T09:56:14.108Z,14.97
2016-10-29T09:57:13.257Z,15.24
2016-10-29T09:58:13.361Z,15.75
2016-10-29T09:59:13.740Z,16.05
2016-10-29T10:00:13.595Z,16.26
2016-10-29T10:01:13.972Z,16.39
2016-10-29T10:02:14.456Z,16.35
2016-10-29T10:03:14.247Z,15.42
2016-10-29T10:04:14.016Z,15.31
2016-10-29T10:05:14.213Z,15.57
2016-10-29T10:06:14.224Z,15.44
2016-10-29T10:07:13.666Z,15.25
2016-10-29T10:08:14.132Z,15.18
2016-10-29T10:09:14.064Z,14.82
2016-10-29T10:10:14.174Z,14.73
2016-10-29T10:11:15.003Z,14.54
2016-10-29T10:12:15.440Z,14.32
2016-10-29T10:13:15.206Z,14.17
2016-10-29T10:14:14.825Z,14.35
2016-10-29T10:15:14.324Z,14.5
2016-10-29T10:16:14.837Z,14.84
2016-10-29T10:17:14.237Z,15.18
2016-10-29T10:18:15.017Z,15.35
2016-10-29T10:19:15.039Z,15.04
2016-10-29T10:20:14.790Z,15.14
2016-10-29T10:21:14.147Z,14.94
2016-10-29T10:22:16.181Z,14.85
2016-10-29T10:23:15.478Z,14.73
2016-10-29T10:24:14.143Z,14.63
2016-10-29T10:25:14.829Z,14.65
2016-10-29T10:26:14.120Z,14.48
2016-10-29T10:27:14.166Z,14.35
2016-10-29T10:28:13.924Z,14.36
2016-10-29T10:29:15.299Z,14.36
2016-10-29T10:30:14.463Z,14.3
2016-10-29T10:31:14.777Z,14.22
2016-10-29T10:32:14.741Z,14.12
2016-10-29T10:33:15.143Z,14.15
2016-10-29T10:34:14.979Z,13.92
2016-10-29T10:35:14.783Z,13.89
2016-10-29T10:36:14.380Z,13.77
2016-10-29T10:37:15.362Z,13.62
2016-10-29T10:38:15.308Z,13.67
2016-10-29T10:39:14.690Z,13.87
2016-10-29T10:40:14.920Z,13.89
2016-10-29T10:41:15.195Z,13.9
2016-10-29T10:42:15.291Z,14.03
2016-10-29T10:43:15.961Z,14.08
2016-10-29T10:44:15.858Z,14.25
2016-10-29T10:45:14.987Z,14.32
2016-10-29T10:46:15.070Z,14.2
2016-10-29T10:47:15.103Z,14.22
2016-10-29T10:48:15.733Z,13.9
2016-10-29T10:49:15.226Z,13.62
2016-10-29T10:50:14.483Z,13.46
2016-10-29T10:51:15.966Z,13.47
2016-10-29T10:52:14.948Z,13.33
2016-10-29T10:53:15.801Z,13.42
2016-10-29T10:54:15.826Z,13.39
2016-10-29T10:55:15.389Z,13.41
2016-10-29T10:56:16.005Z,13.72
2016-10-29T10:57:15.415Z,13.78
2016-10-29T10:58:14.877Z,13.81
2016-10-29T10:59:16.105Z,13.99
2016-10-29T11:00:15.235Z,13.95
2016-10-29T11:01:16.141Z,14.05
2016-10-29T11:02:15.235Z,14.17
2016-10-29T11:03:15.595Z,13.93
2016-10-29T11:04:15.781Z,13.89
2016-10-29T11:05:16.095Z,13.89
2016-10-29T11:06:15.917Z,13.99
2016-10-29T11:07:15.199Z,14
2016-10-29T11:08:16.223Z,13.99
2016-10-29T11:09:15.875Z,14
2016-10-29T11:10:15.071Z,13.89
2016-10-29T11:11:15.310Z,13.9
2016-10-29T11:12:15.804Z,13.96
2016-10-29T11:13:15.551Z,13.99
2016-10-29T11:14:15.605Z,13.99
2016-10-29T11:15:15.690Z,14.26
2016-10-29T11:16:15.631Z,14.41
2016-10-29T11:17:16.271Z,14.51
2016-10-29T11:18:15.986Z,14.94
2016-10-29T11:19:15.413Z,15.51
2016-10-29T11:20:15.813Z,15.62
2016-10-29T11:21:15.233Z,15.37
2016-10-29T11:22:15.150Z,15.35
2016-10-29T11:23:15.656Z,14.91
2016-10-29T11:24:16.099Z,14.82
2016-10-29T11:25:16.270Z,14.72
2016-10-29T11:26:16.039Z,14.47
2016-10-29T11:27:15.829Z,14.66
2016-10-29T11:28:16.236Z,15.09
2016-10-29T11:29:16.370Z,15.51
2016-10-29T11:30:16.056Z,15.64
2016-10-29T11:31:16.451Z,15.61
2016-10-29T11:32:15.988Z,15.55
2016-10-29T11:33:16.607Z,15.59
2016-10-29T11:34:15.549Z,15.46
2016-10-29T11:35:15.872Z,14.91
2016-10-29T11:36:16.392Z,14.85
2016-10-29T11:37:15.949Z,14.86
2016-10-29T11:38:16.493Z,14.73
2016-10-29T11:39:15.477Z,14.69
2016-10-29T11:40:15.772Z,14.92
2016-10-29T11:41:16.684Z,15.51
2016-10-29T11:42:15.966Z,16.02
2016-10-29T11:43:16.610Z,16.23
2016-10-29T11:44:16.061Z,16.15
2016-10-29T11:45:16.387Z,15.86
2016-10-29T11:46:16.311Z,15.62
2016-10-29T11:47:16.032Z,15.37
2016-10-29T11:48:16.021Z,15.14
2016-10-29T11:49:16.059Z,14.72
2016-10-29T11:50:16.528Z,13.99
2016-10-29T11:51:16.453Z,14.07
2016-10-29T11:52:17.175Z,13.97
2016-10-29T11:53:17.176Z,14.18
2016-10-29T11:54:16.269Z,14.3
2016-10-29T11:55:16.584Z,14.7
2016-10-29T11:56:16.569Z,15.06
2016-10-29T11:57:17.188Z,15.58
2016-10-29T11:58:17.273Z,15.24
2016-10-29T11:59:16.088Z,15.73
2016-10-29T12:00:16.392Z,16.09
2016-10-29T12:01:16.378Z,16.38
2016-10-29T12:02:16.762Z,16.76
2016-10-29T12:03:17.923Z,16.66
2016-10-29T12:04:17.425Z,16.39
2016-10-29T12:05:17.215Z,15.77
2016-10-29T12:06:17.639Z,15.35
2016-10-29T12:07:16.837Z,15.36
2016-10-29T12:08:17.809Z,14.96
2016-10-29T12:09:17.164Z,14.78
2016-10-29T12:10:16.959Z,14.91
2016-10-29T12:11:16.991Z,15.17
2016-10-29T12:12:18.480Z,15.91
2016-10-29T12:13:17.244Z,16.17
2016-10-29T12:14:17.977Z,16.47
2016-10-29T12:15:16.685Z,16.33
2016-10-29T12:16:17.015Z,16.08
2016-10-29T12:17:17.525Z,15.54
2016-10-29T12:18:16.660Z,15.35
2016-10-29T12:19:17.281Z,15.39
2016-10-29T12:20:16.861Z,15.33
2016-10-29T12:21:17.135Z,15.1
2016-10-29T12:22:17.556Z,14.7
2016-10-29T12:23:17.604Z,14.73
2016-10-29T12:24:18.152Z,14.82
2016-10-29T12:25:18.177Z,15.54
2016-10-29T12:26:17.474Z,15.8
2016-10-29T12:27:17.635Z,16.32
2016-10-29T12:28:17.697Z,16.53
2016-10-29T12:29:17.205Z,16.76
2016-10-29T12:30:17.148Z,16.71
2016-10-29T12:31:17.122Z,16.39
2016-10-29T12:32:17.060Z,16.05
2016-10-29T12:33:17.153Z,15.8
2016-10-29T12:34:18.105Z,16.02
2016-10-29T12:35:17.739Z,16.43
2016-10-29T12:36:17.874Z,16.43
2016-10-29T12:37:17.794Z,16.46
2016-10-29T12:38:18.768Z,15.72
2016-10-29T12:39:17.418Z,15.35
2016-10-29T12:40:17.731Z,15.73
2016-10-29T12:41:17.438Z,16.05
2016-10-29T12:42:17.189Z,16.5
2016-10-29T12:43:17.505Z,16.99
2016-10-29T12:44:17.449Z,17.57
2016-10-29T12:45:17.395Z,17.41
2016-10-29T12:46:18.373Z,16.83
2016-10-29T12:47:17.315Z,17.23
2016-10-29T12:48:17.880Z,17.51
2016-10-29T12:49:17.726Z,17.09
2016-10-29T12:50:17.762Z,16.46
2016-10-29T12:51:18.763Z,16.16
2016-10-29T12:52:18.771Z,15.98
2016-10-29T12:53:17.954Z,15.47
2016-10-29T12:54:18.217Z,15.35
2016-10-29T12:55:17.684Z,15.1
2016-10-29T12:56:19.034Z,14.86
2016-10-29T12:57:17.479Z,14.65
2016-10-29T12:58:17.650Z,14.37
2016-10-29T12:59:18.948Z,14.37
2016-10-29T13:00:17.849Z,14.92
2016-10-29T13:01:17.832Z,15.17
2016-10-29T13:02:17.825Z,15.77
2016-10-29T13:03:18.086Z,16.1
2016-10-29T13:04:18.960Z,15.95
2016-10-29T13:05:17.877Z,15.62
2016-10-29T13:06:17.994Z,15.68
2016-10-29T13:07:18.018Z,15.58
2016-10-29T13:08:18.517Z,15.43
2016-10-29T13:09:18.542Z,15.19
2016-10-29T13:10:19.013Z,15.04
2016-10-29T13:11:18.303Z,15.03